sensor_id;sensor_type;location;lat;lon;timestamp;pressure;altitude;pressure_sealevel;temperature;humidity
71504;BME280;59323;50.874;7.028;2022-11-21T00:00:28;100146.56;;;6.79;99.56
71504;BME280;59323;50.874;7.028;2022-11-21T00:02:57;100147.06;;;6.84;99.67
71504;BME280;59323;50.874;7.028;2022-11-21T00:05:24;100138.47;;;6.79;98.56
71504;BME280;59323;50.874;7.028;2022-11-21T00:07:49;100147.41;;;6.83;98.05
71504;BME280;59323;50.874;7.028;2022-11-21T00:10:15;100143.78;;;6.75;98.63
71504;BME280;59323;50.874;7.028;2022-11-21T00:12:41;100155.38;;;6.76;98.98
71504;BME280;59323;50.874;7.028;2022-11-21T00:15:06;100159.28;;;6.78;99.13
71504;BME280;59323;50.874;7.028;2022-11-21T00:17:32;100163.97;;;6.81;98.71
71504;BME280;59323;50.874;7.028;2022-11-21T00:19:57;100159.91;;;6.72;99.23
71504;BME280;59323;50.874;7.028;2022-11-21T00:22:22;100151.38;;;6.70;98.51
71504;BME280;59323;50.874;7.028;2022-11-21T00:24:48;100163.81;;;6.74;99.17
71504;BME280;59323;50.874;7.028;2022-11-21T00:27:13;100161.22;;;6.62;99.77
71504;BME280;59323;50.874;7.028;2022-11-21T00:29:38;100166.44;;;6.71;98.61
71504;BME280;59323;50.874;7.028;2022-11-21T00:32:04;100159.41;;;6.66;98.75
71504;BME280;59323;50.874;7.028;2022-11-21T00:34:29;100174.69;;;6.78;98.24
71504;BME280;59323;50.874;7.028;2022-11-21T00:36:54;100172.84;;;6.82;96.91
71504;BME280;59323;50.874;7.028;2022-11-21T00:39:20;100158.94;;;6.80;97.46
71504;BME280;59323;50.874;7.028;2022-11-21T00:41:45;100165.63;;;6.86;97.12
71504;BME280;59323;50.874;7.028;2022-11-21T00:44:11;100163.13;;;6.77;97.03
71504;BME280;59323;50.874;7.028;2022-11-21T00:46:36;100156.06;;;6.73;96.84
71504;BME280;59323;50.874;7.028;2022-11-21T00:49:01;100164.09;;;6.69;97.52
71504;BME280;59323;50.874;7.028;2022-11-21T00:51:27;100175.69;;;6.70;97.99
71504;BME280;59323;50.874;7.028;2022-11-21T00:53:52;100171.22;;;6.77;96.70
71504;BME280;59323;50.874;7.028;2022-11-21T00:56:17;100174.88;;;6.69;96.96
71504;BME280;59323;50.874;7.028;2022-11-21T00:58:43;100168.16;;;6.79;95.11
71504;BME280;59323;50.874;7.028;2022-11-21T01:01:10;100156.00;;;6.69;96.09
71504;BME280;59323;50.874;7.028;2022-11-21T01:03:36;100175.41;;;6.75;96.40
71504;BME280;59323;50.874;7.028;2022-11-21T01:06:07;100177.59;;;6.69;95.93
71504;BME280;59323;50.874;7.028;2022-11-21T01:08:38;100178.19;;;6.78;96.31
71504;BME280;59323;50.874;7.028;2022-11-21T01:11:06;100170.44;;;6.77;95.93
71504;BME280;59323;50.874;7.028;2022-11-21T01:13:32;100177.66;;;6.73;95.67
71504;BME280;59323;50.874;7.028;2022-11-21T01:16:11;100176.63;;;6.77;95.64
71504;BME280;59323;50.874;7.028;2022-11-21T01:18:37;100180.44;;;6.76;95.73
71504;BME280;59323;50.874;7.028;2022-11-21T01:21:14;100186.00;;;6.83;94.86
71504;BME280;59323;50.874;7.028;2022-11-21T01:23:40;100190.53;;;6.79;95.58
71504;BME280;59323;50.874;7.028;2022-11-21T01:26:08;100182.28;;;6.72;95.16
71504;BME280;59323;50.874;7.028;2022-11-21T01:28:34;100186.28;;;6.78;95.10
71504;BME280;59323;50.874;7.028;2022-11-21T01:31:09;100192.09;;;6.80;94.78
71504;BME280;59323;50.874;7.028;2022-11-21T01:33:36;100191.69;;;6.78;94.38
71504;BME280;59323;50.874;7.028;2022-11-21T01:36:08;100194.72;;;6.77;94.44
71504;BME280;59323;50.874;7.028;2022-11-21T01:38:34;100192.28;;;6.87;93.27
71504;BME280;59323;50.874;7.028;2022-11-21T01:40:59;100192.53;;;6.82;93.90
71504;BME280;59323;50.874;7.028;2022-11-21T01:43:25;100175.75;;;6.73;94.52
71504;BME280;59323;50.874;7.028;2022-11-21T01:46:00;100185.16;;;6.79;93.74
71504;BME280;59323;50.874;7.028;2022-11-21T01:48:58;100193.94;;;6.76;94.52
71504;BME280;59323;50.874;7.028;2022-11-21T01:54:02;100173.25;;;6.64;93.69
71504;BME280;59323;50.874;7.028;2022-11-21T01:56:35;100184.78;;;6.81;94.05
71504;BME280;59323;50.874;7.028;2022-11-21T01:59:03;100186.56;;;6.73;95.06
71504;BME280;59323;50.874;7.028;2022-11-21T02:01:32;100173.91;;;6.77;93.25
71504;BME280;59323;50.874;7.028;2022-11-21T02:04:01;100188.34;;;6.85;93.25
71504;BME280;59323;50.874;7.028;2022-11-21T02:06:27;100183.50;;;6.75;92.91
71504;BME280;59323;50.874;7.028;2022-11-21T02:08:53;100183.50;;;6.75;93.45
71504;BME280;59323;50.874;7.028;2022-11-21T02:11:32;100188.13;;;6.74;93.77
71504;BME280;59323;50.874;7.028;2022-11-21T02:14:00;100194.94;;;6.68;94.05
71504;BME280;59323;50.874;7.028;2022-11-21T02:16:26;100193.72;;;6.65;93.92
71504;BME280;59323;50.874;7.028;2022-11-21T02:18:51;100188.94;;;6.59;94.93
71504;BME280;59323;50.874;7.028;2022-11-21T02:24:30;100199.81;;;6.62;94.59
71504;BME280;59323;50.874;7.028;2022-11-21T02:26:58;100186.16;;;6.55;94.26
71504;BME280;59323;50.874;7.028;2022-11-21T02:29:25;100201.47;;;6.67;93.84
71504;BME280;59323;50.874;7.028;2022-11-21T02:31:50;100201.03;;;6.65;93.29
71504;BME280;59323;50.874;7.028;2022-11-21T02:34:17;100196.41;;;6.65;93.28
71504;BME280;59323;50.874;7.028;2022-11-21T02:36:46;100182.31;;;6.56;93.61
71504;BME280;59323;50.874;7.028;2022-11-21T02:39:19;100191.19;;;6.57;93.23
71504;BME280;59323;50.874;7.028;2022-11-21T02:41:55;100184.38;;;6.47;93.61
71504;BME280;59323;50.874;7.028;2022-11-21T02:44:26;100185.44;;;6.43;93.67
71504;BME280;59323;50.874;7.028;2022-11-21T02:46:54;100175.25;;;6.36;93.38
71504;BME280;59323;50.874;7.028;2022-11-21T02:49:44;100189.00;;;6.47;93.34
71504;BME280;59323;50.874;7.028;2022-11-21T02:52:13;100171.50;;;6.41;93.60
71504;BME280;59323;50.874;7.028;2022-11-21T02:54:38;100189.00;;;6.47;93.62
71504;BME280;59323;50.874;7.028;2022-11-21T02:57:04;100194.59;;;6.54;92.20
71504;BME280;59323;50.874;7.028;2022-11-21T02:59:29;100185.16;;;6.48;92.96
71504;BME280;59323;50.874;7.028;2022-11-21T03:01:54;100191.63;;;6.43;93.30
71504;BME280;59323;50.874;7.028;2022-11-21T03:04:24;100197.09;;;6.47;92.36
71504;BME280;59323;50.874;7.028;2022-11-21T03:06:49;100199.00;;;6.46;92.43
71504;BME280;59323;50.874;7.028;2022-11-21T03:09:15;100206.25;;;6.42;93.31
71504;BME280;59323;50.874;7.028;2022-11-21T03:11:40;100212.41;;;6.43;93.83
71504;BME280;59323;50.874;7.028;2022-11-21T03:14:05;100210.84;;;6.42;92.61
71504;BME280;59323;50.874;7.028;2022-11-21T03:16:31;100211.81;;;6.49;92.34
71504;BME280;59323;50.874;7.028;2022-11-21T03:18:56;100207.66;;;6.52;92.47
71504;BME280;59323;50.874;7.028;2022-11-21T03:21:22;100206.31;;;6.46;92.64
71504;BME280;59323;50.874;7.028;2022-11-21T03:23:47;100203.97;;;6.44;92.39
71504;BME280;59323;50.874;7.028;2022-11-21T03:26:12;100214.44;;;6.46;92.19
71504;BME280;59323;50.874;7.028;2022-11-21T03:28:40;100202.75;;;6.42;92.96
71504;BME280;59323;50.874;7.028;2022-11-21T03:31:05;100209.03;;;6.46;92.43
71504;BME280;59323;50.874;7.028;2022-11-21T03:33:31;100198.06;;;6.39;92.34
71504;BME280;59323;50.874;7.028;2022-11-21T03:35:56;100205.72;;;6.36;93.34
71504;BME280;59323;50.874;7.028;2022-11-21T03:38:21;100213.38;;;6.34;92.98
71504;BME280;59323;50.874;7.028;2022-11-21T03:40:47;100214.69;;;6.41;93.24
71504;BME280;59323;50.874;7.028;2022-11-21T03:43:12;100205.81;;;6.40;92.16
71504;BME280;59323;50.874;7.028;2022-11-21T03:45:38;100211.91;;;6.37;92.66
71504;BME280;59323;50.874;7.028;2022-11-21T03:48:03;100204.06;;;6.32;92.96
71504;BME280;59323;50.874;7.028;2022-11-21T03:50:28;100207.47;;;6.29;92.19
71504;BME280;59323;50.874;7.028;2022-11-21T03:52:54;100214.50;;;6.33;93.23
71504;BME280;59323;50.874;7.028;2022-11-21T03:55:19;100195.09;;;6.28;92.39
71504;BME280;59323;50.874;7.028;2022-11-21T03:57:44;100189.78;;;6.31;92.52
71504;BME280;59323;50.874;7.028;2022-11-21T04:00:10;100190.94;;;6.30;92.38
71504;BME280;59323;50.874;7.028;2022-11-21T04:02:36;100185.78;;;6.25;92.69
71504;BME280;59323;50.874;7.028;2022-11-21T04:05:01;100194.75;;;6.29;92.04
71504;BME280;59323;50.874;7.028;2022-11-21T04:07:26;100199.38;;;6.29;93.65
71504;BME280;59323;50.874;7.028;2022-11-21T04:09:54;100201.81;;;6.18;93.98
71504;BME280;59323;50.874;7.028;2022-11-21T04:12:19;100212.44;;;6.27;93.94
71504;BME280;59323;50.874;7.028;2022-11-21T04:14:44;100208.34;;;6.17;93.91
71504;BME280;59323;50.874;7.028;2022-11-21T04:17:10;100214.78;;;6.28;93.48
71504;BME280;59323;50.874;7.028;2022-11-21T04:19:35;100214.50;;;6.18;93.62
71504;BME280;59323;50.874;7.028;2022-11-21T04:22:00;100217.72;;;6.23;94.17
71504;BME280;59323;50.874;7.028;2022-11-21T04:24:26;100218.44;;;6.20;94.01
71504;BME280;59323;50.874;7.028;2022-11-21T04:26:53;100203.53;;;6.11;94.81
71504;BME280;59323;50.874;7.028;2022-11-21T04:29:19;100210.94;;;6.14;95.12
71504;BME280;59323;50.874;7.028;2022-11-21T04:31:44;100203.00;;;6.05;95.64
71504;BME280;59323;50.874;7.028;2022-11-21T04:34:10;100201.72;;;5.99;95.75
71504;BME280;59323;50.874;7.028;2022-11-21T04:36:35;100196.06;;;6.04;94.80
71504;BME280;59323;50.874;7.028;2022-11-21T04:39:00;100207.63;;;6.04;95.60
71504;BME280;59323;50.874;7.028;2022-11-21T04:41:26;100220.41;;;6.08;95.93
71504;BME280;59323;50.874;7.028;2022-11-21T04:43:51;100202.06;;;6.13;95.31
71504;BME280;59323;50.874;7.028;2022-11-21T04:46:16;100208.00;;;6.19;94.88
71504;BME280;59323;50.874;7.028;2022-11-21T04:48:42;100195.63;;;6.02;95.70
71504;BME280;59323;50.874;7.028;2022-11-21T04:51:07;100206.59;;;6.09;96.55
71504;BME280;59323;50.874;7.028;2022-11-21T04:53:32;100208.50;;;6.09;96.46
71504;BME280;59323;50.874;7.028;2022-11-21T04:55:58;100206.34;;;6.14;95.92
71504;BME280;59323;50.874;7.028;2022-11-21T04:58:24;100214.41;;;6.14;96.16
71504;BME280;59323;50.874;7.028;2022-11-21T05:00:49;100202.06;;;6.13;95.82
71504;BME280;59323;50.874;7.028;2022-11-21T05:03:15;100221.13;;;6.20;95.86
71504;BME280;59323;50.874;7.028;2022-11-21T05:05:40;100213.03;;;6.20;95.99
71504;BME280;59323;50.874;7.028;2022-11-21T05:08:05;100194.56;;;6.07;96.51
71504;BME280;59323;50.874;7.028;2022-11-21T05:10:31;100211.97;;;6.09;96.81
71504;BME280;59323;50.874;7.028;2022-11-21T05:13:16;100207.72;;;6.08;97.11
71504;BME280;59323;50.874;7.028;2022-11-21T05:15:45;100197.97;;;6.03;97.26
71504;BME280;59323;50.874;7.028;2022-11-21T05:18:10;100194.41;;;5.99;97.98
71504;BME280;59323;50.874;7.028;2022-11-21T05:20:36;100202.31;;;6.08;97.49
71504;BME280;59323;50.874;7.028;2022-11-21T05:23:01;100208.16;;;6.10;97.45
71504;BME280;59323;50.874;7.028;2022-11-21T05:25:26;100198.06;;;6.07;97.42
71504;BME280;59323;50.874;7.028;2022-11-21T05:27:54;100196.50;;;6.06;97.84
71504;BME280;59323;50.874;7.028;2022-11-21T05:30:20;100189.63;;;6.09;97.90
71504;BME280;59323;50.874;7.028;2022-11-21T05:32:45;100186.94;;;6.09;98.00
71504;BME280;59323;50.874;7.028;2022-11-21T05:35:10;100178.22;;;5.99;97.67
71504;BME280;59323;50.874;7.028;2022-11-21T05:37:36;100186.41;;;6.03;98.08
71504;BME280;59323;50.874;7.028;2022-11-21T05:40:01;100188.13;;;5.95;98.45
71504;BME280;59323;50.874;7.028;2022-11-21T05:42:26;100187.09;;;6.00;97.62
71504;BME280;59323;50.874;7.028;2022-11-21T05:45:10;100196.94;;;6.08;98.40
71504;BME280;59323;50.874;7.028;2022-11-21T05:47:36;100195.72;;;6.06;98.05
71504;BME280;59323;50.874;7.028;2022-11-21T05:50:01;100196.66;;;6.13;98.15
71504;BME280;59323;50.874;7.028;2022-11-21T05:52:27;100182.22;;;6.06;98.16
71504;BME280;59323;50.874;7.028;2022-11-21T05:54:52;100187.72;;;6.09;98.49
71504;BME280;59323;50.874;7.028;2022-11-21T05:57:18;100186.84;;;6.21;97.12
71504;BME280;59323;50.874;7.028;2022-11-21T05:59:43;100184.56;;;6.23;97.44
71504;BME280;59323;50.874;7.028;2022-11-21T06:02:08;100177.63;;;6.06;98.13
71504;BME280;59323;50.874;7.028;2022-11-21T06:04:52;100189.72;;;6.12;98.22
71504;BME280;59323;50.874;7.028;2022-11-21T06:07:17;100195.44;;;6.11;97.87
71504;BME280;59323;50.874;7.028;2022-11-21T06:09:43;100192.75;;;6.11;97.88
71504;BME280;59323;50.874;7.028;2022-11-21T06:12:08;100201.97;;;6.10;97.62
71504;BME280;59323;50.874;7.028;2022-11-21T06:14:33;100190.66;;;6.04;98.01
71504;BME280;59323;50.874;7.028;2022-11-21T06:16:59;100193.72;;;6.02;98.31
71504;BME280;59323;50.874;7.028;2022-11-21T06:19:24;100199.53;;;6.04;98.04
71504;BME280;59323;50.874;7.028;2022-11-21T06:21:49;100189.88;;;6.03;98.17
71504;BME280;59323;50.874;7.028;2022-11-21T06:24:15;100179.00;;;6.00;98.08
71504;BME280;59323;50.874;7.028;2022-11-21T06:26:40;100182.03;;;5.98;98.80
71504;BME280;59323;50.874;7.028;2022-11-21T06:29:05;100188.66;;;6.01;98.81
71504;BME280;59323;50.874;7.028;2022-11-21T06:31:31;100189.63;;;6.09;98.83
71504;BME280;59323;50.874;7.028;2022-11-21T06:33:57;100180.75;;;6.08;97.94
71504;BME280;59323;50.874;7.028;2022-11-21T06:36:23;100168.81;;;6.09;97.82
71504;BME280;59323;50.874;7.028;2022-11-21T06:38:52;100169.88;;;6.20;97.41
71504;BME280;59323;50.874;7.028;2022-11-21T06:41:20;100170.56;;;6.17;97.05
71504;BME280;59323;50.874;7.028;2022-11-21T06:43:46;100170.81;;;6.12;97.87
71504;BME280;59323;50.874;7.028;2022-11-21T06:46:12;100168.81;;;6.09;97.78
71504;BME280;59323;50.874;7.028;2022-11-21T06:48:38;100183.00;;;6.06;98.18
71504;BME280;59323;50.874;7.028;2022-11-21T06:51:08;100183.00;;;6.06;98.62
71504;BME280;59323;50.874;7.028;2022-11-21T06:53:35;100190.31;;;6.06;98.67
71504;BME280;59323;50.874;7.028;2022-11-21T06:56:00;100175.97;;;6.01;98.74
71504;BME280;59323;50.874;7.028;2022-11-21T06:58:27;100191.88;;;6.07;99.21
71504;BME280;59323;50.874;7.028;2022-11-21T07:00:53;100196.50;;;6.06;99.56
71504;BME280;59323;50.874;7.028;2022-11-21T07:03:19;100200.31;;;6.05;99.22
71504;BME280;59323;50.874;7.028;2022-11-21T07:05:45;100193.28;;;6.00;99.67
71504;BME280;59323;50.874;7.028;2022-11-21T07:08:10;100200.31;;;6.05;100.00
71504;BME280;59323;50.874;7.028;2022-11-21T07:10:35;100190.56;;;6.00;99.61
71504;BME280;59323;50.874;7.028;2022-11-21T07:13:01;100197.53;;;6.01;100.00
71504;BME280;59323;50.874;7.028;2022-11-21T07:15:46;100200.31;;;6.05;99.36
71504;BME280;59323;50.874;7.028;2022-11-21T07:18:12;100189.00;;;5.99;99.44
71504;BME280;59323;50.874;7.028;2022-11-21T07:20:39;100184.41;;;6.00;99.57
71504;BME280;59323;50.874;7.028;2022-11-21T07:23:05;100183.69;;;6.03;99.46
71504;BME280;59323;50.874;7.028;2022-11-21T07:25:31;100189.09;;;6.03;99.85
71504;BME280;59323;50.874;7.028;2022-11-21T07:28:00;100185.53;;;5.99;100.00
71504;BME280;59323;50.874;7.028;2022-11-21T07:30:26;100191.00;;;6.02;99.51
71504;BME280;59323;50.874;7.028;2022-11-21T07:32:55;100196.06;;;6.04;99.92
71504;BME280;59323;50.874;7.028;2022-11-21T07:35:21;100194.16;;;6.04;99.32
71504;BME280;59323;50.874;7.028;2022-11-21T07:37:46;100182.91;;;6.02;99.61
71504;BME280;59323;50.874;7.028;2022-11-21T07:40:12;100174.31;;;5.97;99.14
71504;BME280;59323;50.874;7.028;2022-11-21T07:42:37;100190.56;;;6.00;100.00
71504;BME280;59323;50.874;7.028;2022-11-21T07:45:03;100187.19;;;6.03;99.85
71504;BME280;59323;50.874;7.028;2022-11-21T07:47:29;100189.19;;;6.07;99.47
71504;BME280;59323;50.874;7.028;2022-11-21T07:49:54;100192.91;;;6.02;99.68
71504;BME280;59323;50.874;7.028;2022-11-21T07:52:19;100184.56;;;6.07;99.83
71504;BME280;59323;50.874;7.028;2022-11-21T07:54:45;100188.84;;;6.08;100.00
71504;BME280;59323;50.874;7.028;2022-11-21T07:57:10;100182.66;;;6.08;99.68
71504;BME280;59323;50.874;7.028;2022-11-21T07:59:35;100181.09;;;6.07;99.89
71504;BME280;59323;50.874;7.028;2022-11-21T08:02:01;100181.53;;;6.09;99.47
71504;BME280;59323;50.874;7.028;2022-11-21T08:04:27;100180.06;;;6.11;99.25
71504;BME280;59323;50.874;7.028;2022-11-21T08:06:53;100164.13;;;6.06;99.05
71504;BME280;59323;50.874;7.028;2022-11-21T08:09:18;100165.53;;;6.16;98.35
71504;BME280;59323;50.874;7.028;2022-11-21T08:11:43;100157.50;;;6.19;96.94
71504;BME280;59323;50.874;7.028;2022-11-21T08:14:09;100157.59;;;6.23;96.96
71504;BME280;59323;50.874;7.028;2022-11-21T08:16:34;100147.50;;;6.20;96.73
71504;BME280;59323;50.874;7.028;2022-11-21T08:19:00;100150.72;;;6.25;96.40
71504;BME280;59323;50.874;7.028;2022-11-21T08:21:25;100171.34;;;6.33;96.84
71504;BME280;59323;50.874;7.028;2022-11-21T08:23:51;100164.81;;;6.34;96.09
71504;BME280;59323;50.874;7.028;2022-11-21T08:26:17;100150.09;;;6.32;96.13
71504;BME280;59323;50.874;7.028;2022-11-21T08:28:42;100160.63;;;6.37;96.03
71504;BME280;59323;50.874;7.028;2022-11-21T08:31:08;100164.63;;;6.43;94.17
71504;BME280;59323;50.874;7.028;2022-11-21T08:33:34;100147.94;;;6.38;94.95
71504;BME280;59323;50.874;7.028;2022-11-21T08:36:03;100167.25;;;6.40;95.61
71504;BME280;59323;50.874;7.028;2022-11-21T08:38:29;100165.25;;;6.36;95.86
71504;BME280;59323;50.874;7.028;2022-11-21T08:40:54;100151.94;;;6.28;95.55
71504;BME280;59323;50.874;7.028;2022-11-21T08:43:38;100167.25;;;6.40;94.84
71504;BME280;59323;50.874;7.028;2022-11-21T08:46:04;100167.59;;;6.38;95.74
71504;BME280;59323;50.874;7.028;2022-11-21T08:48:29;100163.25;;;6.33;96.29
71504;BME280;59323;50.874;7.028;2022-11-21T08:50:56;100167.84;;;6.33;96.11
71504;BME280;59323;50.874;7.028;2022-11-21T08:53:21;100171.00;;;6.35;96.96
71504;BME280;59323;50.874;7.028;2022-11-21T08:55:46;100167.50;;;6.34;97.29
71504;BME280;59323;50.874;7.028;2022-11-21T08:58:12;100154.63;;;6.28;97.46
71504;BME280;59323;50.874;7.028;2022-11-21T09:00:37;100168.66;;;6.33;98.11
71504;BME280;59323;50.874;7.028;2022-11-21T09:03:05;100147.69;;;6.27;97.38
71504;BME280;59323;50.874;7.028;2022-11-21T09:05:32;100170.72;;;6.40;97.62
71504;BME280;59323;50.874;7.028;2022-11-21T09:07:57;100153.66;;;6.36;97.21
71504;BME280;59323;50.874;7.028;2022-11-21T09:10:25;100159.59;;;6.42;97.50
71504;BME280;59323;50.874;7.028;2022-11-21T09:12:50;100149.84;;;6.37;97.92
71504;BME280;59323;50.874;7.028;2022-11-21T09:15:16;100143.03;;;6.43;98.64
71504;BME280;59323;50.874;7.028;2022-11-21T09:18:16;100145.47;;;6.48;98.64
71504;BME280;59323;50.874;7.028;2022-11-21T09:20:42;100143.41;;;6.57;98.50
71504;BME280;59323;50.874;7.028;2022-11-21T09:23:13;100113.63;;;6.54;99.24
71504;BME280;59323;50.874;7.028;2022-11-21T09:25:39;100124.72;;;6.68;98.16
71504;BME280;59323;50.874;7.028;2022-11-21T09:28:07;100127.94;;;6.74;97.89
71504;BME280;59323;50.874;7.028;2022-11-21T09:30:33;100137.41;;;6.83;98.35
71504;BME280;59323;50.874;7.028;2022-11-21T09:33:03;100129.00;;;6.88;97.58
71504;BME280;59323;50.874;7.028;2022-11-21T09:35:29;100118.06;;;6.81;97.72
71504;BME280;59323;50.874;7.028;2022-11-21T09:37:55;100121.50;;;6.97;97.87
71504;BME280;59323;50.874;7.028;2022-11-21T09:40:21;100123.84;;;6.99;97.10
71504;BME280;59323;50.874;7.028;2022-11-21T09:43:05;100132.16;;;7.10;96.73
71504;BME280;59323;50.874;7.028;2022-11-21T09:45:45;100131.88;;;7.15;96.07
71504;BME280;59323;50.874;7.028;2022-11-21T09:48:14;100117.25;;;7.16;95.97
71504;BME280;59323;50.874;7.028;2022-11-21T09:50:45;100122.88;;;7.26;96.18
71504;BME280;59323;50.874;7.028;2022-11-21T09:53:17;100115.97;;;7.29;94.98
71504;BME280;59323;50.874;7.028;2022-11-21T09:55:54;100105.94;;;7.29;94.49
71504;BME280;59323;50.874;7.028;2022-11-21T10:01:00;100104.47;;;7.55;93.95
71504;BME280;59323;50.874;7.028;2022-11-21T10:03:29;100106.22;;;7.67;92.24
71504;BME280;59323;50.874;7.028;2022-11-21T10:06:03;100099.38;;;7.73;92.48
71504;BME280;59323;50.874;7.028;2022-11-21T10:16:46;100090.56;;;7.99;90.62
71504;BME280;59323;50.874;7.028;2022-11-21T10:22:02;100086.13;;;8.13;89.82
71504;BME280;59323;50.874;7.028;2022-11-21T10:27:30;100067.00;;;8.25;88.83
71504;BME280;59323;50.874;7.028;2022-11-21T10:30:04;100065.72;;;8.42;87.98
71504;BME280;59323;50.874;7.028;2022-11-21T10:32:39;100059.72;;;8.56;87.39
71504;BME280;59323;50.874;7.028;2022-11-21T10:35:36;100058.41;;;8.73;86.84
71504;BME280;59323;50.874;7.028;2022-11-21T10:38:02;100052.28;;;8.79;87.04
71504;BME280;59323;50.874;7.028;2022-11-21T10:40:46;100050.34;;;8.80;85.04
71504;BME280;59323;50.874;7.028;2022-11-21T10:46:17;100046.44;;;8.77;85.02
71504;BME280;59323;50.874;7.028;2022-11-21T10:48:56;100048.72;;;8.72;84.16
71504;BME280;59323;50.874;7.028;2022-11-21T10:54:09;100033.31;;;8.79;83.29
71504;BME280;59323;50.874;7.028;2022-11-21T10:56:59;100026.09;;;8.90;83.11
71504;BME280;59323;50.874;7.028;2022-11-21T10:59:28;100017.59;;;8.92;83.48
71504;BME280;59323;50.874;7.028;2022-11-21T11:02:09;100011.06;;;8.97;82.77
71504;BME280;59323;50.874;7.028;2022-11-21T11:04:45;100004.88;;;8.96;82.23
71504;BME280;59323;50.874;7.028;2022-11-21T11:07:24;100012.25;;;8.99;81.76
71504;BME280;59323;50.874;7.028;2022-11-21T11:09:50;100007.91;;;8.91;81.47
71504;BME280;59323;50.874;7.028;2022-11-21T11:12:27;100003.19;;;8.84;80.18
71504;BME280;59323;50.874;7.028;2022-11-21T11:15:19;99999.72;;;8.84;80.15
71504;BME280;59323;50.874;7.028;2022-11-21T11:17:52;99981.41;;;8.74;79.29
71504;BME280;59323;50.874;7.028;2022-11-21T11:22:55;99977.50;;;8.71;80.64
71504;BME280;59323;50.874;7.028;2022-11-21T11:25:21;99978.25;;;8.68;81.31
71504;BME280;59323;50.874;7.028;2022-11-21T11:27:47;99956.50;;;8.61;80.26
71504;BME280;59323;50.874;7.028;2022-11-21T11:30:18;99960.41;;;8.64;79.55
71504;BME280;59323;50.874;7.028;2022-11-21T11:32:43;99962.69;;;8.62;80.35
71504;BME280;59323;50.874;7.028;2022-11-21T11:37:42;99955.38;;;8.66;78.99
71504;BME280;59323;50.874;7.028;2022-11-21T11:48:53;99921.06;;;8.77;79.36
71504;BME280;59323;50.874;7.028;2022-11-21T11:51:26;99935.06;;;8.82;77.61
71504;BME280;59323;50.874;7.028;2022-11-21T11:53:57;99919.91;;;8.78;77.61
71504;BME280;59323;50.874;7.028;2022-11-21T11:56:29;99920.66;;;8.75;76.91
71504;BME280;59323;50.874;7.028;2022-11-21T11:59:09;99911.72;;;8.71;78.18
71504;BME280;59323;50.874;7.028;2022-11-21T12:01:41;99905.88;;;8.65;78.21
71504;BME280;59323;50.874;7.028;2022-11-21T12:04:17;99908.19;;;8.67;78.28
71504;BME280;59323;50.874;7.028;2022-11-21T12:12:14;99882.88;;;8.48;78.65
71504;BME280;59323;50.874;7.028;2022-11-21T12:21:23;99875.94;;;8.51;77.76
71504;BME280;59323;50.874;7.028;2022-11-21T12:23:38;99876.84;;;8.66;77.64
71504;BME280;59323;50.874;7.028;2022-11-21T12:26:38;99875.72;;;8.70;77.79
71504;BME280;59323;50.874;7.028;2022-11-21T12:32:13;99869.72;;;8.91;76.91
71504;BME280;59323;50.874;7.028;2022-11-21T12:37:54;99848.50;;;8.97;74.63
71504;BME280;59323;50.874;7.028;2022-11-21T12:43:41;99850.06;;;9.01;74.16
71504;BME280;59323;50.874;7.028;2022-11-21T12:46:27;99833.78;;;8.98;73.72
71504;BME280;59323;50.874;7.028;2022-11-21T12:49:19;99839.59;;;8.96;72.82
71504;BME280;59323;50.874;7.028;2022-11-21T12:55:11;99840.72;;;8.92;72.71
71504;BME280;59323;50.874;7.028;2022-11-21T12:57:51;99838.78;;;8.92;70.00
71504;BME280;59323;50.874;7.028;2022-11-21T13:05:54;99823.53;;;8.73;71.63
71504;BME280;59323;50.874;7.028;2022-11-21T13:08:24;99812.63;;;8.66;71.32
71504;BME280;59323;50.874;7.028;2022-11-21T13:10:56;99819.56;;;8.64;71.12
71504;BME280;59323;50.874;7.028;2022-11-21T13:13:46;99801.31;;;8.53;72.63
71504;BME280;59323;50.874;7.028;2022-11-21T13:16:22;99800.09;;;8.47;71.25
71504;BME280;59323;50.874;7.028;2022-11-21T13:20:16;99795.38;;;8.44;72.06
71504;BME280;59323;50.874;7.028;2022-11-21T13:27:36;99791.47;;;8.38;72.33
71504;BME280;59323;50.874;7.028;2022-11-21T13:32:48;99789.09;;;8.33;71.66
71504;BME280;59323;50.874;7.028;2022-11-21T13:45:48;99740.28;;;8.26;73.20
71504;BME280;59323;50.874;7.028;2022-11-21T13:56:41;99727.94;;;8.28;73.42
71504;BME280;59323;50.874;7.028;2022-11-21T14:08:21;99692.69;;;8.21;73.15
71504;BME280;59323;50.874;7.028;2022-11-21T14:10:49;99699.25;;;8.20;72.84
71504;BME280;59323;50.874;7.028;2022-11-21T14:18:46;99668.97;;;8.04;74.48
71504;BME280;59323;50.874;7.028;2022-11-21T14:21:24;99673.56;;;8.00;74.11
71504;BME280;59323;50.874;7.028;2022-11-21T14:23:56;99670.44;;;7.98;74.65
71504;BME280;59323;50.874;7.028;2022-11-21T14:26:23;99663.06;;;7.91;75.18
71504;BME280;59323;50.874;7.028;2022-11-21T14:28:50;99664.97;;;7.91;74.59
71504;BME280;59323;50.874;7.028;2022-11-21T14:31:16;99652.97;;;7.88;74.66
71504;BME280;59323;50.874;7.028;2022-11-21T14:33:43;99648.66;;;7.80;74.78
71504;BME280;59323;50.874;7.028;2022-11-21T14:36:14;99663.34;;;7.83;75.79
71504;BME280;59323;50.874;7.028;2022-11-21T14:38:46;99657.09;;;7.79;75.03
71504;BME280;59323;50.874;7.028;2022-11-21T14:46:36;99608.31;;;7.64;75.87
71504;BME280;59323;50.874;7.028;2022-11-21T14:51:37;99595.88;;;7.56;76.08
71504;BME280;59323;50.874;7.028;2022-11-21T14:54:02;99585.06;;;7.56;75.67
71504;BME280;59323;50.874;7.028;2022-11-21T14:56:30;99581.91;;;7.51;75.67
71504;BME280;59323;50.874;7.028;2022-11-21T14:59:00;99575.69;;;7.47;76.45
71504;BME280;59323;50.874;7.028;2022-11-21T15:01:31;99578.38;;;7.43;76.92
71504;BME280;59323;50.874;7.028;2022-11-21T15:03:58;99565.19;;;7.38;76.48
71504;BME280;59323;50.874;7.028;2022-11-21T15:06:25;99557.03;;;7.35;77.61
71504;BME280;59323;50.874;7.028;2022-11-21T15:08:53;99552.81;;;7.37;77.03
71504;BME280;59323;50.874;7.028;2022-11-21T15:11:22;99552.38;;;7.31;76.97